Terminal Aerodrome Forecast
Issued by NWS

Home | Current Version | Previous Version | Text Only | Print | Product List | Glossary On
Versions: 1 2 3 4 5 6 7 8 9 10 11 12 13 14 15 16 17 18 19 20
000
FTUS44 KLZK 052300
TAFBPK
TAF
KBPK 052337Z 0600/0624 04003KT P6SM SKC
     FM060800 13003KT 4SM BR SCT010 SCT250
     FM061400 17007KT P6SM SKC=

USA.gov is the U.S. government's official web portal to all federal, state and local government web resources and services.